Time;durP1;ratioP1;P1;durP2;ratioP2;P2;SDS_P1;SDS_P2;PMS_P1;PMS_P2;Temp;Humidity;BMP_temperature;BMP_pressure;BME280_temperature;BME280_humidity;BME280_pressure;Samples;Min_cycle;Max_cycle;Signal;HPM_P1;HPM_P2
2021/04/26 00:00:27;;;;;;;2.97;0.95;;;4.20;99.90;;;;;;4671153;30;20133;-68
2021/04/26 00:03:20;;;;;;;1.48;0.50;;;4.10;99.90;;;;;;4699826;30;20415;-67
2021/04/26 00:13:15;;;;;;;3.42;0.90;;;4.00;99.90;;;;;;4684087;30;20065;-67
2021/04/26 00:15:51;;;;;;;2.20;0.85;;;3.90;99.90;;;;;;4674676;30;20050;-67
2021/04/26 00:18:19;;;;;;;1.52;0.70;;;3.90;99.90;;;;;;4701685;30;20120;-67
2021/04/26 00:21:00;;;;;;;1.95;0.50;;;3.80;99.90;;;;;;4687469;30;20423;-66
2021/04/26 00:23:27;;;;;;;1.98;0.68;;;3.70;99.90;;;;;;4687274;30;20475;-67
2021/04/26 00:26:00;;;;;;;4.45;1.10;;;3.70;99.90;;;;;;4670505;30;20074;-67
2021/04/26 00:32:54;;;;;;;1.30;0.68;;;3.70;99.90;;;;;;4702549;30;20071;-67
2021/04/26 00:35:25;;;;;;;2.90;0.93;;;3.60;99.90;;;;;;4682989;30;20097;-67
2021/04/26 00:37:55;;;;;;;1.40;0.60;;;3.50;99.90;;;;;;4701743;30;20496;-67
2021/04/26 00:47:55;;;;;;;2.65;0.65;;;3.40;99.90;;;;;;4702044;30;20045;-67
2021/04/26 00:57:55;;;;;;;1.48;0.70;;;3.30;99.90;;;;;;4702317;30;20040;-68
2021/04/26 01:00:29;;;;;;;3.67;0.90;;;3.20;99.90;;;;;;4670046;30;20049;-68
2021/04/26 01:02:58;;;;;;;0.90;0.60;;;3.20;99.90;;;;;;4669676;30;20095;-68
2021/04/26 01:20:59;;;;;;;1.02;0.50;;;3.00;99.90;;;;;;4701809;30;20102;-68
2021/04/26 01:23:54;;;;;;;1.77;0.60;;;3.00;99.90;;;;;;4684785;30;20077;-68
2021/04/26 01:30:38;;;;;;;1.70;0.70;;;2.90;99.90;;;;;;4701637;30;20073;-68
2021/04/26 01:33:30;;;;;;;1.10;0.55;;;2.90;99.90;;;;;;4684540;30;20055;-67
2021/04/26 01:36:14;;;;;;;2.03;0.65;;;2.90;99.90;;;;;;4682226;30;20054;-67
2021/04/26 01:46:07;;;;;;;3.33;1.02;;;2.80;99.90;;;;;;4690547;30;20050;-67
2021/04/26 01:48:48;;;;;;;2.63;0.82;;;2.70;99.90;;;;;;4686341;30;20505;-68
2021/04/26 01:51:34;;;;;;;0.90;0.65;;;2.70;99.90;;;;;;4701599;30;20068;-67
2021/04/26 01:58:15;;;;;;;1.17;0.65;;;2.70;99.90;;;;;;4701366;30;20087;-68
2021/04/26 02:00:59;;;;;;;0.85;0.50;;;2.60;99.90;;;;;;4694602;30;20049;-67
2021/04/26 02:03:50;;;;;;;1.63;0.77;;;2.60;99.90;;;;;;4701575;30;20049;-67
2021/04/26 02:10:28;;;;;;;2.28;0.70;;;2.60;99.90;;;;;;4700843;30;20107;-67
2021/04/26 02:13:03;;;;;;;1.10;0.70;;;2.60;99.90;;;;;;4683027;30;20050;-67
2021/04/26 02:23:13;;;;;;;4.07;1.00;;;2.50;99.90;;;;;;4684677;30;20513;-67
2021/04/26 02:25:40;;;;;;;2.42;0.60;;;2.60;99.90;;;;;;4701183;30;20056;-67
2021/04/26 02:28:13;;;;;;;1.60;0.90;;;2.40;99.90;;;;;;4699872;30;20120;-67
2021/04/26 02:38:30;;;;;;;2.83;1.10;;;2.40;99.90;;;;;;4700868;30;20049;-67
2021/04/26 02:41:18;;;;;;;2.25;0.77;;;2.30;99.90;;;;;;4698344;30;20050;-66
2021/04/26 02:44:01;;;;;;;5.88;0.80;;;2.30;99.90;;;;;;4688066;30;20053;-66
2021/04/26 02:46:36;;;;;;;1.17;0.65;;;2.30;99.90;;;;;;4699255;30;20064;-67
2021/04/26 02:53:11;;;;;;;1.63;0.68;;;2.30;99.90;;;;;;4700412;30;20047;-68
2021/04/26 02:55:41;;;;;;;3.35;0.70;;;2.30;99.90;;;;;;4669642;30;20422;-67
2021/04/26 03:05:42;;;;;;;1.92;0.60;;;2.20;99.90;;;;;;4699921;30;20045;-67
2021/04/26 03:08:13;;;;;;;1.40;0.55;;;2.20;99.90;;;;;;4697022;30;20076;-67
2021/04/26 03:10:57;;;;;;;2.92;0.80;;;2.10;99.90;;;;;;4696597;30;20049;-67
2021/04/26 03:13:39;;;;;;;2.25;0.90;;;2.10;99.90;;;;;;4677738;30;20041;-67
2021/04/26 03:19:50;;;;;;;2.03;0.80;;;2.00;99.90;;;;;;4699032;30;20064;-67
2021/04/26 03:26:06;;;;;;;3.05;0.63;;;2.00;99.90;;;;;;4685086;30;20077;-67
2021/04/26 03:29:00;;;;;;;3.22;0.98;;;2.00;99.90;;;;;;4685644;30;20062;-67
2021/04/26 03:35:35;;;;;;;1.55;0.65;;;2.00;99.90;;;;;;4699982;30;20141;-67
2021/04/26 03:38:37;;;;;;;1.35;0.80;;;1.90;99.90;;;;;;4668282;30;20088;-67
2021/04/26 03:41:09;;;;;;;2.92;1.00;;;1.90;99.90;;;;;;4681532;30;20054;-67
2021/04/26 03:47:17;;;;;;;1.95;0.85;;;1.90;99.90;;;;;;4699498;30;20041;-67
2021/04/26 03:49:52;;;;;;;1.10;0.60;;;2.00;99.90;;;;;;4684257;30;20049;-67
2021/04/26 03:53:08;;;;;;;1.02;0.63;;;1.90;99.90;;;;;;4700096;30;20111;-67
2021/04/26 03:55:46;;;;;;;5.60;0.70;;;1.80;99.90;;;;;;4684770;30;20096;-67
2021/04/26 04:06:04;;;;;;;2.05;0.90;;;1.80;99.90;;;;;;4699814;30;20510;-66
2021/04/26 04:08:32;;;;;;;1.58;0.70;;;1.80;99.90;;;;;;4686065;30;20076;-68
2021/04/26 04:10:59;;;;;;;1.73;0.73;;;1.70;99.90;;;;;;4696718;30;20058;-67
2021/04/26 04:13:32;;;;;;;1.35;0.63;;;1.70;99.90;;;;;;4684609;30;20446;-67
2021/04/26 04:19:44;;;;;;;1.25;0.60;;;1.70;99.90;;;;;;4702089;30;20151;-69
2021/04/26 04:26:03;;;;;;;1.55;0.68;;;1.70;99.90;;;;;;4685972;30;20116;-67
2021/04/26 04:28:33;;;;;;;3.03;1.08;;;1.70;99.90;;;;;;4703328;30;20049;-67
2021/04/26 04:31:15;;;;;;;1.70;0.55;;;1.70;99.90;;;;;;4702844;30;20084;-66
2021/04/26 04:41:11;;;;;;;1.52;0.73;;;1.70;99.90;;;;;;4702149;30;20359;-67
2021/04/26 04:43:44;;;;;;;2.08;0.57;;;1.70;99.90;;;;;;4673591;30;20103;-67
2021/04/26 04:46:22;;;;;;;;;;;1.70;99.90;;;;;;4702956;30;20049;-67
2021/04/26 04:53:08;;;;;;;1.67;0.73;;;1.80;99.90;;;;;;4702358;30;20497;-67
2021/04/26 04:55:44;;;;;;;1.75;0.80;;;1.80;99.90;;;;;;4701165;30;20068;-67
2021/04/26 04:58:12;;;;;;;2.08;0.80;;;1.80;99.90;;;;;;4687095;30;20463;-67
2021/04/26 05:00:48;;;;;;;1.25;0.60;;;1.80;99.90;;;;;;4702091;30;20381;-67
2021/04/26 05:03:20;;;;;;;3.08;1.10;;;1.80;99.90;;;;;;4699292;30;20132;-66
2021/04/26 05:10:03;;;;;;;2.72;0.80;;;1.80;99.90;;;;;;4701922;30;20303;-67
2021/04/26 05:12:29;;;;;;;1.95;0.68;;;1.90;99.90;;;;;;4700833;30;20058;-67
2021/04/26 05:14:59;;;;;;;1.75;0.90;;;2.00;99.90;;;;;;4686998;30;20133;-67
2021/04/26 05:17:32;;;;;;;1.35;0.80;;;1.90;99.90;;;;;;4701306;30;20442;-68
2021/04/26 05:20:00;;;;;;;3.90;1.02;;;2.00;99.90;;;;;;4653977;30;20152;-68
2021/04/26 05:22:37;;;;;;;3.90;0.77;;;2.00;99.90;;;;;;4686964;30;20060;-68
2021/04/26 05:25:08;;;;;;;1.50;0.57;;;2.00;99.90;;;;;;4701766;30;20471;-67
2021/04/26 05:27:36;;;;;;;2.90;0.90;;;2.00;99.90;;;;;;4701450;30;20045;-67
2021/04/26 05:31:01;;;;;;;2.58;0.95;;;2.20;99.90;;;;;;4701973;30;20059;-67
2021/04/26 05:37:34;;;;;;;1.27;0.60;;;2.20;99.90;;;;;;4701624;30;20561;-67
2021/04/26 05:40:07;;;;;;;2.00;0.90;;;2.20;99.90;;;;;;4669273;30;20480;-67
2021/04/26 05:42:34;;;;;;;2.30;0.77;;;2.30;99.90;;;;;;4669251;30;20500;-67
2021/04/26 05:45:08;;;;;;;1.63;0.75;;;2.30;99.90;;;;;;4680403;30;20112;-67
2021/04/26 05:48:14;;;;;;;2.30;0.73;;;2.40;99.90;;;;;;4689865;30;20064;-67
2021/04/26 05:55:03;;;;;;;3.03;0.80;;;2.60;99.90;;;;;;4701278;30;20040;-68
2021/04/26 05:57:33;;;;;;;1.75;0.95;;;2.80;99.90;;;;;;4684307;30;20128;-68
2021/04/26 06:00:03;;;;;;;3.95;1.10;;;2.90;99.90;;;;;;4668492;30;20145;-67
2021/04/26 06:02:39;;;;;;;5.82;1.10;;;3.00;99.90;;;;;;4686405;30;20073;-67
2021/04/26 06:05:10;;;;;;;1.85;0.90;;;3.10;99.90;;;;;;4684608;30;20121;-68
2021/04/26 06:07:40;;;;;;;2.78;0.95;;;3.20;99.90;;;;;;4667424;30;20086;-67
2021/04/26 06:21:09;;;;;;;9.95;1.90;;;3.80;99.90;;;;;;4700509;30;20458;-69
2021/04/26 06:23:43;;;;;;;8.90;1.25;;;4.10;99.90;;;;;;4675070;30;20061;-68
2021/04/26 06:30:07;;;;;;;2.53;1.15;;;4.60;99.90;;;;;;4700239;30;20129;-68
2021/04/26 06:32:38;;;;;;;7.97;1.10;;;4.80;99.90;;;;;;4683000;30;20050;-68
2021/04/26 06:35:09;;;;;;;5.20;1.45;;;4.90;99.90;;;;;;4678492;30;20054;-69
2021/04/26 06:37:36;;;;;;;3.33;1.17;;;5.10;99.90;;;;;;4685740;30;20069;-69
2021/04/26 06:40:07;;;;;;;5.30;1.10;;;5.20;99.90;;;;;;4681188;30;20066;-68
2021/04/26 06:42:39;;;;;;;4.30;1.13;;;5.20;99.90;;;;;;4698196;30;20045;-69
2021/04/26 06:45:10;;;;;;;6.28;1.50;;;5.30;99.90;;;;;;4701007;30;20053;-69
2021/04/26 06:47:38;;;;;;;7.20;1.08;;;5.40;99.90;;;;;;4674837;30;20144;-68
2021/04/26 06:50:07;;;;;;;4.40;0.85;;;5.50;99.90;;;;;;4682366;30;20060;-68
2021/04/26 06:52:41;;;;;;;6.55;1.05;;;5.50;99.90;;;;;;4696173;30;20048;-68
2021/04/26 06:55:13;;;;;;;3.85;0.90;;;5.60;99.90;;;;;;4698829;30;20056;-68
2021/04/26 06:57:39;;;;;;;5.15;1.13;;;5.70;99.90;;;;;;4697190;30;20159;-68
2021/04/26 07:00:08;;;;;;;6.45;1.35;;;5.70;99.90;;;;;;4700489;30;20557;-68
2021/04/26 07:02:50;;;;;;;2.90;0.98;;;5.70;99.90;;;;;;4686321;30;20135;-68
2021/04/26 07:05:28;;;;;;;4.03;0.90;;;5.80;99.90;;;;;;4697905;30;20069;-68
2021/04/26 07:08:19;;;;;;;4.45;1.30;;;5.80;99.90;;;;;;4700126;30;20046;-68
2021/04/26 07:11:08;;;;;;;5.20;1.30;;;5.90;99.90;;;;;;4686740;30;20057;-67
2021/04/26 07:13:38;;;;;;;5.63;1.23;;;5.90;99.90;;;;;;4695744;30;20188;-67
2021/04/26 07:16:13;;;;;;;3.22;1.33;;;6.00;99.90;;;;;;4684783;30;20053;-67
2021/04/26 07:19:22;;;;;;;6.82;1.50;;;6.10;99.90;;;;;;4661539;30;20116;-68
2021/04/26 07:21:54;;;;;;;9.05;1.95;;;6.10;99.90;;;;;;4693088;30;20104;-69
2021/04/26 07:24:21;;;;;;;6.82;1.38;;;6.20;99.90;;;;;;4699147;30;20049;-68
2021/04/26 07:26:56;;;;;;;7.35;1.88;;;6.30;99.90;;;;;;4696150;30;20050;-68
2021/04/26 07:29:27;;;;;;;4.47;1.30;;;6.40;99.90;;;;;;4673663;30;20479;-68
2021/04/26 07:31:53;;;;;;;8.05;1.85;;;6.50;99.90;;;;;;4668045;30;20054;-66
2021/04/26 07:34:24;;;;;;;4.07;1.35;;;6.60;99.90;;;;;;4669249;30;20144;-69
2021/04/26 07:37:00;;;;;;;4.43;1.38;;;6.50;99.90;;;;;;4695638;30;20050;-69
2021/04/26 07:39:32;;;;;;;3.58;1.20;;;6.60;99.90;;;;;;4700013;30;20062;-72
2021/04/26 07:49:29;;;;;;;2.65;0.95;;;6.80;99.90;;;;;;4699715;30;20096;-69
2021/04/26 07:52:38;;;;;;;6.65;1.13;;;6.90;99.90;;;;;;4697131;30;20050;-69
2021/04/26 07:59:01;;;;;;;5.05;1.15;;;7.00;99.90;;;;;;4703109;30;20045;-68
2021/04/26 08:01:54;;;;;;;2.72;0.80;;;7.00;99.90;;;;;;4699986;30;20132;-68
2021/04/26 08:04:24;;;;;;;3.85;0.82;;;7.10;99.90;;;;;;4697452;30;20077;-67
2021/04/26 08:14:58;;;;;;;2.30;0.65;;;7.30;99.90;;;;;;4702781;30;20044;-67
2021/04/26 08:17:45;;;;;;;3.78;0.95;;;7.30;99.90;;;;;;4702826;30;20104;-68
2021/04/26 08:20:18;;;;;;;4.03;1.15;;;7.40;99.90;;;;;;4701012;30;20057;-67
2021/04/26 08:22:44;;;;;;;6.15;1.48;;;7.50;99.90;;;;;;4700709;30;20070;-68
2021/04/26 08:25:44;;;;;;;4.47;1.20;;;7.60;99.90;;;;;;4702602;30;20128;-69
2021/04/26 08:28:19;;;;;;;4.65;1.45;;;7.70;99.90;;;;;;4702588;30;20062;-68
2021/04/26 08:30:49;;;;;;;3.30;0.80;;;7.90;99.90;;;;;;4702457;30;20057;-68
2021/04/26 08:33:36;;;;;;;1.63;0.60;;;7.90;99.90;;;;;;4691861;30;20060;-68
2021/04/26 08:39:58;;;;;;;1.25;0.68;;;7.90;99.90;;;;;;4702294;30;20455;-68
2021/04/26 08:42:27;;;;;;;1.50;0.60;;;7.90;99.90;;;;;;4693573;30;20052;-67
2021/04/26 08:44:55;;;;;;;4.78;0.70;;;8.00;99.90;;;;;;4702895;30;20057;-70
2021/04/26 08:51:08;;;;;;;5.53;0.80;;;8.10;99.90;;;;;;4702120;30;20056;-69
2021/04/26 08:53:59;;;;;;;3.55;1.10;;;8.20;99.90;;;;;;4702492;30;20057;-68
2021/04/26 08:56:40;;;;;;;4.80;0.90;;;8.30;99.90;;;;;;4702714;30;20049;-70
2021/04/26 09:03:31;;;;;;;4.43;0.93;;;8.30;99.90;;;;;;4701423;30;20088;-70
2021/04/26 09:06:11;;;;;;;1.92;0.70;;;8.30;99.90;;;;;;4700582;30;20153;-69
2021/04/26 09:09:02;;;;;;;1.67;0.65;;;8.20;99.90;;;;;;4674038;30;20488;-70
2021/04/26 09:12:02;;;;;;;2.95;0.98;;;8.20;99.90;;;;;;4702556;30;20057;-73
